MOL Paramount — 3ECH9 — position and weather

sailwx.info

Track history (hours):
 
Tides and Currents Weather Stations Pressure Air Temp Water Temp Dewpoint Dewpoint Depression Visibility Wind Speed Wind Dir Waves Ship Positions

MOL Paramount

Last reported at 2014-Jul-20 04:33 UTC. Time now 2014-Jul-22 09:16 UTC.
Position N 22°34' E 114°17'.

Length 293 m; draft 9.2 m.

Type: Cargo ship. MMSI: 371519000.

Date/timePositionNaut miles runAvg speedWind from/ knotsBaromVisibWave heightAir tempDewpointWater temp
2014-Jul-20 04:33N 22°34' E 114°17'1 0.9
2014-Jul-20 03:33N 22°34' E 114°16'0 0.0
2014-Jul-20 02:33N 22°34' E 114°16'0 0.0
2014-Jul-20 01:33N 22°34' E 114°16'0 0.0
2014-Jul-20 00:33N 22°34' E 114°16'0 0.0
2014-Jul-19 23:33N 22°34' E 114°16'0 0.0
2014-Jul-19 22:21N 22°34' E 114°16'0 0.0
2014-Jul-19 21:33N 22°34' E 114°16'0 0.0
2014-Jul-19 20:33N 22°34' E 114°16'0 0.0
2014-Jul-19 19:33N 22°34' E 114°16'0 0.0
2014-Jul-19 18:33N 22°34' E 114°16'0 0.0
2014-Jul-19 17:33N 22°34' E 114°16'0 0.0
2014-Jul-19 16:27N 22°34' E 114°16'0 0.0
2014-Jul-19 15:33N 22°34' E 114°16'19 1.3
2014-Jul-19 01:14N 22°18' E 114°06'2 0.2
2014-Jul-18 11:16N 22°20' E 114°07'17 5.5
2014-Jul-18 08:09N 22°04' E 114°16'1 0.9
2014-Jul-18 07:28N 22°05' E 114°15'0 0.0
2014-Jul-18 06:16N 22°05' E 114°15'0 0.0
2014-Jul-18 05:28N 22°05' E 114°15'0 0.0
2014-Jul-18 04:28N 22°04' E 114°15'0 0.0
2014-Jul-18 03:28N 22°04' E 114°15'0 0.0
2014-Jul-18 02:28N 22°04' E 114°15'0 0.0
2014-Jul-18 01:10N 22°04' E 114°15'0 0.0
2014-Jul-18 00:22N 22°04' E 114°15'0 0.0
2014-Jul-16 08:22N 22°04' E 114°15'0 0.0
2014-Jul-16 05:16N 22°04' E 114°15'0 0.1
2014-Jul-16 04:28N 22°04' E 114°15'0 0.2
2014-Jul-16 03:28N 22°04' E 114°15'0 0.0
2014-Jul-16 02:28N 22°04' E 114°15'0 0.1
2014-Jul-16 01:28N 22°04' E 114°15'  
Track history (hours):
 
Tides and Currents Weather Stations Pressure Air Temp Water Temp Dewpoint Dewpoint Depression Visibility Wind Speed Wind Dir Waves Ship Positions

MOL Paramount

Last reported at 2014-Jul-20 04:33 UTC. Time now 2014-Jul-22 09:16 UTC.
Position N 22°34' E 114°17'.

Length 293 m; draft 9.2 m.

Type: Cargo ship. MMSI: 371519000.

Date/timePositionNaut miles runAvg speedWind from/ knotsBaromVisibWave heightAir tempDewpointWater temp
2014-Jul-20 04:33N 22°34' E 114°17'1 0.9
2014-Jul-20 03:33N 22°34' E 114°16'0 0.0
2014-Jul-20 02:33N 22°34' E 114°16'0 0.0
2014-Jul-20 01:33N 22°34' E 114°16'0 0.0
2014-Jul-20 00:33N 22°34' E 114°16'0 0.0
2014-Jul-19 23:33N 22°34' E 114°16'0 0.0
2014-Jul-19 22:21N 22°34' E 114°16'0 0.0
2014-Jul-19 21:33N 22°34' E 114°16'0 0.0
2014-Jul-19 20:33N 22°34' E 114°16'0 0.0
2014-Jul-19 19:33N 22°34' E 114°16'0 0.0
2014-Jul-19 18:33N 22°34' E 114°16'0 0.0
2014-Jul-19 17:33N 22°34' E 114°16'0 0.0
2014-Jul-19 16:27N 22°34' E 114°16'0 0.0
2014-Jul-19 15:33N 22°34' E 114°16'19 1.3
2014-Jul-19 01:14N 22°18' E 114°06'2 0.2
2014-Jul-18 11:16N 22°20' E 114°07'17 5.5
2014-Jul-18 08:09N 22°04' E 114°16'1 0.9
2014-Jul-18 07:28N 22°05' E 114°15'0 0.0
2014-Jul-18 06:16N 22°05' E 114°15'0 0.0
2014-Jul-18 05:28N 22°05' E 114°15'0 0.0
2014-Jul-18 04:28N 22°04' E 114°15'0 0.0
2014-Jul-18 03:28N 22°04' E 114°15'0 0.0
2014-Jul-18 02:28N 22°04' E 114°15'0 0.0
2014-Jul-18 01:10N 22°04' E 114°15'0 0.0
2014-Jul-18 00:22N 22°04' E 114°15'0 0.0
2014-Jul-16 08:22N 22°04' E 114°15'0 0.0
2014-Jul-16 05:16N 22°04' E 114°15'0 0.1
2014-Jul-16 04:28N 22°04' E 114°15'0 0.2
2014-Jul-16 03:28N 22°04' E 114°15'0 0.0
2014-Jul-16 02:28N 22°04' E 114°15'0 0.1
2014-Jul-16 01:28N 22°04' E 114°15'  

Dump ship's entire track history